Time;durP1;ratioP1;P1;durP2;ratioP2;P2;SDS_P1;SDS_P2;PMS_P1;PMS_P2;Temp;Humidity;BMP_temperature;BMP_pressure;BME280_temperature;BME280_humidity;BME280_pressure;Samples;Min_cycle;Max_cycle;Signal;HPM_P1;HPM_P2
2022/11/08 01:20:50;;;;;;;5.78;1.23;;;12.80;99.90;;;;;;6224746;22;20108;-95
2022/11/08 01:23:17;;;;;;;3.08;0.90;;;12.80;99.90;;;;;;6186421;22;20028;-94
2022/11/08 07:05:51;;;;;;;4.65;0.85;;;11.00;99.90;;;;;;6217996;23;20343;-93
2022/11/08 07:08:18;;;;;;;2.95;0.93;;;11.10;99.90;;;;;;6161718;23;20107;-93
2022/11/08 07:19:03;;;;;;;4.18;0.80;;;11.10;99.90;;;;;;6191340;22;20110;-93
2022/11/08 07:21:29;;;;;;;3.65;1.13;;;11.10;99.90;;;;;;6258105;22;20448;-94
2022/11/08 17:42:26;;;;;;;3.70;1.08;;;13.50;99.90;;;;;;6216468;23;20099;-91
2022/11/08 17:44:55;;;;;;;2.92;0.95;;;13.50;99.90;;;;;;6186647;23;20024;-93
2022/11/08 17:47:21;;;;;;;3.00;0.63;;;13.40;99.90;;;;;;6186506;23;20032;-90
2022/11/08 19:05:19;;;;;;;4.53;0.80;;;13.30;99.90;;;;;;6235532;22;20046;-93
2022/11/08 19:07:45;;;;;;;1.35;0.60;;;13.30;99.90;;;;;;6164084;22;20024;-93
2022/11/08 19:10:11;;;;;;;3.42;0.73;;;13.30;99.90;;;;;;6186310;23;20021;-91
2022/11/08 19:17:52;;;;;;;1.67;0.50;;;13.30;99.90;;;;;;6210551;23;20028;-93
2022/11/08 19:34:27;;;;;;;1.67;0.68;;;13.40;99.90;;;;;;6213643;23;20020;-92
2022/11/08 19:36:53;;;;;;;2.92;0.63;;;13.40;99.90;;;;;;6187892;23;20025;-92
2022/11/08 19:39:19;;;;;;;2.77;0.73;;;13.40;99.90;;;;;;6200687;22;20031;-94
2022/11/08 19:41:44;;;;;;;2.13;0.60;;;13.40;99.90;;;;;;6188384;23;20713;-92
2022/11/08 19:44:10;;;;;;;1.75;0.60;;;13.40;99.90;;;;;;6166447;23;20024;-96
2022/11/08 19:46:46;;;;;;;2.47;0.70;;;13.40;99.90;;;;;;6164748;23;20063;-95
2022/11/08 19:49:12;;;;;;;2.40;0.80;;;13.40;99.90;;;;;;6165594;23;20248;-96
2022/11/08 19:51:38;;;;;;;1.80;0.65;;;13.40;99.90;;;;;;6187942;23;20044;-95
2022/11/08 19:54:10;;;;;;;2.38;0.80;;;13.40;99.90;;;;;;6185615;23;20095;-95
2022/11/08 19:56:36;;;;;;;3.08;0.65;;;13.40;99.90;;;;;;6186201;23;20012;-96
2022/11/08 19:59:03;;;;;;;2.00;0.82;;;13.40;99.90;;;;;;6162974;23;20437;-95
2022/11/08 20:01:39;;;;;;;3.78;0.60;;;13.40;99.90;;;;;;6191170;23;20017;-96
2022/11/08 20:04:06;;;;;;;1.88;0.50;;;13.40;99.90;;;;;;6191853;23;20016;-96
2022/11/08 20:06:33;;;;;;;1.80;0.68;;;13.40;99.90;;;;;;6189577;23;20020;-96
2022/11/08 20:09:23;;;;;;;;;;;13.40;99.90;;;;;;6188898;23;20027;-95
2022/11/08 20:11:54;;;;;;;2.30;0.80;;;13.40;99.90;;;;;;6190417;23;19916;-92
2022/11/08 20:19:30;;;;;;;2.13;0.65;;;13.40;99.90;;;;;;6230051;22;20017;-91
2022/11/08 20:21:56;;;;;;;2.60;0.70;;;13.40;99.90;;;;;;6210769;23;20065;-91
2022/11/08 20:24:59;;;;;;;3.05;0.80;;;13.40;99.90;;;;;;6212398;23;20510;-92
2022/11/08 20:28:02;;;;;;;3.20;0.93;;;13.40;99.90;;;;;;6188445;23;20019;-94
2022/11/08 20:48:36;;;;;;;4.78;0.70;;;13.40;99.90;;;;;;6176842;23;20469;-94
2022/11/08 20:51:03;;;;;;;;;;;13.40;99.90;;;;;;6127979;23;20100;-92
2022/11/08 20:53:46;;;;;;;;;;;;;;;;;;;;;
2022/11/08 20:56:28;;;;;;;2.28;0.90;;;13.40;99.90;;;;;;6154500;22;20021;-92
2022/11/08 20:58:53;;;;;;;2.20;0.68;;;13.40;99.90;;;;;;6068668;23;20024;-94
2022/11/08 21:01:22;;;;;;;1.97;0.70;;;13.40;99.90;;;;;;6121766;22;20094;-95
2022/11/08 21:03:51;;;;;;;3.53;0.80;;;13.40;99.90;;;;;;6173123;22;20094;-94
2022/11/08 21:06:21;;;;;;;1.67;0.70;;;13.40;99.90;;;;;;6126363;22;20027;-91
2022/11/08 21:09:14;;;;;;;3.25;0.50;;;13.40;99.90;;;;;;6129737;23;20163;-91
2022/11/08 21:11:40;;;;;;;2.28;0.70;;;13.40;99.90;;;;;;6130023;23;20025;-92
2022/11/08 21:14:24;;;;;;;2.67;0.65;;;13.40;99.90;;;;;;6104862;23;20022;-92
2022/11/08 21:40:11;;;;;;;2.45;0.75;;;13.40;99.90;;;;;;6181269;23;20028;-90
2022/11/08 21:42:36;;;;;;;1.60;0.60;;;13.50;99.90;;;;;;6161704;22;20476;-91
2022/11/08 21:45:15;;;;;;;7.90;0.70;;;13.50;99.90;;;;;;6136552;23;20013;-92
2022/11/08 21:47:41;;;;;;;1.48;0.40;;;13.50;99.90;;;;;;6161225;23;20035;-90
2022/11/08 21:50:07;;;;;;;2.27;0.60;;;13.40;99.90;;;;;;6161514;23;20438;-91
2022/11/08 21:52:36;;;;;;;3.67;0.68;;;13.30;99.90;;;;;;6162470;23;20589;-91
2022/11/08 21:55:02;;;;;;;1.40;0.50;;;13.20;99.90;;;;;;6137988;23;20045;-89
2022/11/08 21:57:31;;;;;;;2.92;0.70;;;13.10;99.90;;;;;;6139480;23;20099;-92
2022/11/08 22:00:00;;;;;;;2.05;0.60;;;13.00;99.90;;;;;;6190638;22;20028;-92
2022/11/08 22:56:24;;;;;;;1.73;0.40;;;13.00;99.90;;;;;;6222526;22;20020;-94
2022/11/08 22:58:50;;;;;;;0.77;0.20;;;13.00;99.90;;;;;;6288911;22;20018;-93
2022/11/08 23:01:16;;;;;;;1.00;0.20;;;13.00;99.90;;;;;;6316983;22;20273;-96
2022/11/08 23:03:46;;;;;;;1.33;0.40;;;13.00;99.90;;;;;;6313690;22;20034;-93
2022/11/08 23:06:17;;;;;;;2.60;0.30;;;13.00;99.90;;;;;;6313219;22;20022;-91
2022/11/08 23:09:15;;;;;;;0.55;0.20;;;13.00;99.90;;;;;;6302610;22;20014;-91
2022/11/08 23:17:36;;;;;;;1.02;0.20;;;12.80;99.90;;;;;;6308031;22;20026;-91
2022/11/08 23:25:41;;;;;;;1.20;0.22;;;12.60;99.90;;;;;;6322735;22;20042;-91
2022/11/08 23:34:03;;;;;;;1.88;0.32;;;12.50;99.90;;;;;;6318697;22;20098;-93
2022/11/08 23:36:29;;;;;;;0.75;0.20;;;12.50;99.90;;;;;;6292602;22;20046;-92
2022/11/08 23:38:57;;;;;;;1.52;0.30;;;12.50;99.90;;;;;;6267967;22;20010;-92
2022/11/08 23:44:23;;;;;;;1.10;0.38;;;12.50;99.90;;;;;;6295375;22;20034;-95
2022/11/08 23:46:50;;;;;;;1.88;0.30;;;12.50;99.90;;;;;;6246938;22;20047;-92
2022/11/08 23:49:24;;;;;;;1.65;0.40;;;12.40;99.90;;;;;;6293628;22;20020;-91
2022/11/08 23:51:53;;;;;;;0.73;0.40;;;12.40;99.90;;;;;;6297695;22;20057;-92
2022/11/08 23:54:22;;;;;;;1.17;0.43;;;12.40;99.90;;;;;;6271289;22;20026;-95
2022/11/08 23:59:50;;;;;;;1.23;0.40;;;12.40;99.90;;;;;;6230632;22;20016;-93
